Time;durP1;ratioP1;P1;durP2;ratioP2;P2;SDS_P1;SDS_P2;PMS_P1;PMS_P2;Temp;Humidity;BMP_temperature;BMP_pressure;BME280_temperature;BME280_humidity;BME280_pressure;Samples;Min_cycle;Max_cycle;Signal;HPM_P1;HPM_P2
2023/02/03 00:00:10;;;;;;;14.43;6.65;;;5.60;99.90;;;;;;5068015;28;20040;-92
2023/02/03 00:02:36;;;;;;;19.05;7.30;;;5.80;99.90;;;;;;5052395;28;20032;-91
2023/02/03 00:05:02;;;;;;;13.05;6.38;;;5.70;99.90;;;;;;5034933;28;20112;-91
2023/02/03 00:07:28;;;;;;;18.65;7.00;;;5.80;99.90;;;;;;5052202;28;20029;-91
2023/02/03 00:09:55;;;;;;;14.88;7.45;;;5.70;99.90;;;;;;5056035;28;20458;-91
2023/02/03 00:12:21;;;;;;;13.88;7.45;;;5.80;99.90;;;;;;5056312;28;20071;-91
2023/02/03 00:14:47;;;;;;;15.70;7.07;;;6.40;99.90;;;;;;5038209;28;20096;-92
2023/02/03 00:17:14;;;;;;;16.70;7.60;;;6.40;99.90;;;;;;5056268;28;20095;-91
2023/02/03 00:19:39;;;;;;;15.82;7.90;;;6.40;99.90;;;;;;5038038;28;20493;-91
2023/02/03 00:22:05;;;;;;;19.30;9.10;;;6.40;99.90;;;;;;5037722;28;20029;-92
2023/02/03 00:24:31;;;;;;;18.13;9.07;;;5.90;99.90;;;;;;5056212;28;20596;-91
2023/02/03 00:26:56;;;;;;;20.08;8.30;;;6.30;99.90;;;;;;5055999;28;20436;-91
2023/02/03 00:29:24;;;;;;;22.63;9.35;;;6.00;99.90;;;;;;5056079;28;20039;-91
2023/02/03 00:31:52;;;;;;;18.08;9.15;;;6.00;99.90;;;;;;5056069;28;20037;-91
2023/02/03 00:34:18;;;;;;;20.98;9.68;;;6.10;99.90;;;;;;5037873;28;20051;-91
2023/02/03 00:36:45;;;;;;;16.70;8.93;;;6.10;99.90;;;;;;5055301;28;20029;-91
2023/02/03 00:39:11;;;;;;;18.65;9.75;;;6.20;99.90;;;;;;5055560;28;20100;-90
2023/02/03 00:41:37;;;;;;;18.33;8.82;;;6.10;99.90;;;;;;5055482;28;20096;-91
2023/02/03 00:44:02;;;;;;;15.10;8.00;;;6.30;99.90;;;;;;5037790;28;20089;-91
2023/02/03 00:46:28;;;;;;;16.63;8.55;;;5.90;99.90;;;;;;5055874;28;20025;-91
2023/02/03 00:48:53;;;;;;;15.90;7.38;;;5.90;99.90;;;;;;5055843;28;20025;-91
2023/02/03 00:51:20;;;;;;;13.82;6.80;;;5.90;99.90;;;;;;5037389;28;20439;-91
2023/02/03 00:53:47;;;;;;;12.68;6.80;;;5.80;99.90;;;;;;5037479;28;20509;-92
2023/02/03 00:56:13;;;;;;;16.55;6.85;;;6.20;99.90;;;;;;5037539;28;20021;-91
2023/02/03 00:58:39;;;;;;;15.35;7.15;;;6.30;99.90;;;;;;5037373;28;20021;-91
2023/02/03 01:01:06;;;;;;;12.85;6.68;;;6.10;99.90;;;;;;5037296;28;20032;-89
2023/02/03 01:03:32;;;;;;;14.35;6.82;;;6.00;99.90;;;;;;5036977;28;20481;-91
2023/02/03 01:06:08;;;;;;;12.68;6.68;;;5.80;99.90;;;;;;5054271;28;20028;-92
2023/02/03 01:08:34;;;;;;;11.65;6.05;;;6.00;99.90;;;;;;5055069;28;20476;-91
2023/02/03 01:11:05;;;;;;;12.88;6.35;;;5.90;99.90;;;;;;5054660;28;20132;-92
2023/02/03 01:13:31;;;;;;;19.05;10.15;;;5.90;99.90;;;;;;5054638;28;20401;-91
2023/02/03 01:15:56;;;;;;;20.08;12.68;;;6.00;99.90;;;;;;5054525;28;20028;-91
2023/02/03 01:18:22;;;;;;;17.48;10.13;;;6.40;99.90;;;;;;5054296;28;20037;-92
2023/02/03 01:20:48;;;;;;;16.00;9.25;;;6.50;99.90;;;;;;5035528;28;20021;-91
2023/02/03 01:23:13;;;;;;;16.13;7.30;;;6.60;99.90;;;;;;5036836;28;20060;-91
2023/02/03 01:25:39;;;;;;;13.57;7.68;;;6.00;99.90;;;;;;5054426;28;20059;-91
2023/02/03 01:28:04;;;;;;;14.75;7.70;;;6.00;99.90;;;;;;5055695;28;20019;-92
2023/02/03 01:30:30;;;;;;;18.15;8.50;;;6.10;99.90;;;;;;5054126;28;20025;-91
2023/02/03 01:32:56;;;;;;;17.75;8.27;;;6.50;99.90;;;;;;5036374;28;20052;-92
2023/02/03 01:35:22;;;;;;;14.43;7.22;;;6.40;99.90;;;;;;5036010;28;20078;-91
2023/02/03 01:37:47;;;;;;;18.17;9.35;;;6.40;99.90;;;;;;5054197;28;20500;-91
2023/02/03 01:40:13;;;;;;;18.10;7.93;;;6.40;99.90;;;;;;5036315;28;20064;-92
2023/02/03 01:42:38;;;;;;;16.90;8.10;;;6.10;99.90;;;;;;5054141;28;20100;-92
2023/02/03 01:45:04;;;;;;;13.60;7.10;;;6.40;99.90;;;;;;5054208;28;20546;-91
2023/02/03 01:47:35;;;;;;;13.43;7.07;;;5.90;99.90;;;;;;5054269;28;20038;-92
2023/02/03 01:50:19;;;;;;;14.40;6.95;;;5.90;99.90;;;;;;5035892;28;20027;-91
2023/02/03 01:53:01;;;;;;;14.32;7.38;;;5.80;99.90;;;;;;5053564;28;20032;-91
2023/02/03 01:55:36;;;;;;;19.75;9.55;;;5.90;99.90;;;;;;5036541;28;20029;-92
2023/02/03 01:58:07;;;;;;;22.90;10.82;;;6.00;99.90;;;;;;5053846;28;20070;-91
2023/02/03 02:00:33;;;;;;;22.33;9.90;;;6.00;99.90;;;;;;5052981;28;20028;-91
2023/02/03 02:03:01;;;;;;;22.75;11.13;;;6.10;99.90;;;;;;5035581;28;20092;-91
2023/02/03 02:05:35;;;;;;;23.27;11.88;;;6.00;99.90;;;;;;5053911;28;20032;-91
2023/02/03 02:08:02;;;;;;;19.83;9.27;;;5.80;99.90;;;;;;5053689;28;20112;-91
2023/02/03 02:10:30;;;;;;;16.65;8.20;;;5.80;99.90;;;;;;5036096;28;20020;-91
2023/02/03 02:13:00;;;;;;;18.25;8.95;;;5.90;99.90;;;;;;5036006;28;20033;-91
2023/02/03 02:15:44;;;;;;;18.90;8.27;;;6.00;99.90;;;;;;5035811;28;20559;-92
2023/02/03 02:18:27;;;;;;;18.08;7.53;;;5.80;99.90;;;;;;5035640;28;20868;-90
2023/02/03 02:21:49;;;;;;;15.73;7.65;;;5.70;99.90;;;;;;5053569;28;20020;-90
2023/02/03 02:24:59;;;;;;;16.30;8.35;;;5.80;99.90;;;;;;4973128;28;20495;-91
2023/02/03 02:28:09;;;;;;;14.30;7.18;;;5.70;99.90;;;;;;4915873;29;20036;-91
2023/02/03 02:30:53;;;;;;;12.25;6.57;;;5.60;99.90;;;;;;4915713;29;20142;-91
2023/02/03 02:33:32;;;;;;;17.65;7.75;;;5.60;99.90;;;;;;4914727;29;20532;-91
2023/02/03 02:36:19;;;;;;;17.52;8.27;;;5.80;99.90;;;;;;4915975;29;20223;-91
2023/02/03 02:39:07;;;;;;;14.85;7.32;;;5.70;99.90;;;;;;4915668;29;20039;-91
2023/02/03 02:41:42;;;;;;;16.25;7.72;;;5.70;99.90;;;;;;4899611;29;20084;-91
2023/02/03 02:44:29;;;;;;;14.70;7.90;;;5.80;99.90;;;;;;4915753;29;20047;-92
2023/02/03 02:47:04;;;;;;;17.08;7.53;;;5.70;99.90;;;;;;4899508;29;20032;-91
2023/02/03 02:49:41;;;;;;;11.88;6.65;;;5.70;99.90;;;;;;4915733;29;20070;-91
2023/02/03 02:52:08;;;;;;;14.88;7.20;;;5.70;99.90;;;;;;4915458;29;20107;-91
2023/02/03 02:54:39;;;;;;;14.27;7.50;;;5.90;99.90;;;;;;4932008;29;20055;-91
2023/02/03 02:57:08;;;;;;;15.90;7.35;;;6.10;99.90;;;;;;4953124;29;20050;-90
2023/02/03 02:59:34;;;;;;;14.23;7.03;;;6.10;99.90;;;;;;4952960;29;20034;-91
2023/02/03 03:01:59;;;;;;;17.05;7.20;;;6.20;99.90;;;;;;4961302;28;20027;-91
2023/02/03 03:04:28;;;;;;;13.30;6.68;;;6.40;99.90;;;;;;5035538;28;20056;-92
2023/02/03 03:07:18;;;;;;;14.43;6.90;;;6.40;99.90;;;;;;5053262;28;20032;-91
2023/02/03 03:09:57;;;;;;;16.20;7.13;;;6.20;99.90;;;;;;5034837;28;20082;-91
2023/02/03 03:12:31;;;;;;;16.63;6.90;;;6.20;99.90;;;;;;5052853;28;20029;-91
2023/02/03 03:15:03;;;;;;;16.15;7.90;;;6.50;99.90;;;;;;5035235;28;20033;-90
2023/02/03 03:17:39;;;;;;;14.85;7.65;;;6.10;99.90;;;;;;5035459;28;20067;-91
2023/02/03 03:20:10;;;;;;;17.13;7.88;;;6.20;99.90;;;;;;5034942;28;20025;-91
2023/02/03 03:22:41;;;;;;;13.82;7.53;;;5.90;99.90;;;;;;5052749;28;20021;-91
2023/02/03 03:25:17;;;;;;;16.80;7.18;;;6.20;99.90;;;;;;5053342;28;20075;-91
2023/02/03 03:27:48;;;;;;;12.98;6.68;;;5.80;99.90;;;;;;5052900;28;20021;-91
2023/02/03 03:30:21;;;;;;;17.80;8.13;;;5.50;99.90;;;;;;5034847;28;20025;-91
2023/02/03 03:32:48;;;;;;;16.65;7.30;;;5.30;99.90;;;;;;5034821;28;20048;-91
2023/02/03 03:35:14;;;;;;;16.67;7.57;;;5.30;99.90;;;;;;5053019;28;20477;-91
2023/02/03 03:37:50;;;;;;;15.20;7.38;;;5.50;99.90;;;;;;5052724;28;20032;-91
2023/02/03 03:40:19;;;;;;;14.55;7.70;;;6.00;99.90;;;;;;5052850;28;20022;-91
2023/02/03 03:42:53;;;;;;;12.65;8.02;;;5.70;99.90;;;;;;5053223;28;20053;-91
2023/02/03 03:45:39;;;;;;;14.13;7.53;;;5.90;99.90;;;;;;5056350;28;20035;-91
2023/02/03 03:48:27;;;;;;;16.65;7.68;;;5.50;99.90;;;;;;5056987;28;20107;-91
2023/02/03 03:50:58;;;;;;;15.48;7.80;;;6.10;99.90;;;;;;5038706;28;20021;-91
2023/02/03 03:53:27;;;;;;;12.95;7.70;;;5.80;99.90;;;;;;5056540;28;20047;-91
2023/02/03 03:55:55;;;;;;;14.07;8.43;;;5.70;99.90;;;;;;5056503;28;20024;-91
2023/02/03 03:58:26;;;;;;;14.77;8.10;;;6.10;99.90;;;;;;5058566;28;20029;-91
2023/02/03 04:00:56;;;;;;;16.60;8.25;;;5.70;99.90;;;;;;5047504;28;20062;-91
2023/02/03 04:03:37;;;;;;;17.10;8.63;;;5.60;99.90;;;;;;5056598;28;20029;-91
2023/02/03 04:06:03;;;;;;;12.90;7.95;;;5.90;99.90;;;;;;5056203;28;20057;-91
2023/02/03 04:08:29;;;;;;;15.75;7.90;;;5.90;99.90;;;;;;5056206;28;20033;-91
2023/02/03 04:10:54;;;;;;;15.27;8.00;;;5.60;99.90;;;;;;5038200;28;20032;-92
2023/02/03 04:13:20;;;;;;;15.77;8.13;;;5.60;99.90;;;;;;5055825;28;20047;-92
2023/02/03 04:15:45;;;;;;;18.98;8.98;;;5.60;99.90;;;;;;5056510;28;20435;-91
2023/02/03 04:18:13;;;;;;;13.25;8.70;;;5.50;99.90;;;;;;5056130;28;20079;-91
2023/02/03 04:20:39;;;;;;;19.23;8.88;;;5.50;99.90;;;;;;5056089;28;20033;-91
2023/02/03 04:23:04;;;;;;;16.30;9.75;;;5.40;99.90;;;;;;5038430;28;20374;-92
2023/02/03 04:25:30;;;;;;;15.20;8.68;;;5.30;99.90;;;;;;5056195;28;20025;-91
2023/02/03 04:27:56;;;;;;;18.83;8.48;;;5.30;99.90;;;;;;5037940;28;20033;-91
2023/02/03 04:30:22;;;;;;;12.75;7.95;;;5.10;99.90;;;;;;5056067;28;20044;-91
2023/02/03 04:32:48;;;;;;;15.93;8.73;;;5.00;99.90;;;;;;5055659;28;20041;-91
2023/02/03 04:35:14;;;;;;;12.85;7.30;;;4.90;99.90;;;;;;5037949;28;20170;-91
2023/02/03 04:37:39;;;;;;;14.25;7.13;;;4.80;99.90;;;;;;5055682;28;20021;-91
2023/02/03 04:40:06;;;;;;;13.93;8.02;;;5.00;99.90;;;;;;5037977;28;20078;-91
2023/02/03 04:42:32;;;;;;;12.63;8.07;;;4.70;99.90;;;;;;5055127;28;20104;-91
2023/02/03 04:44:57;;;;;;;18.55;9.98;;;4.60;99.90;;;;;;5055645;28;20501;-91
2023/02/03 04:47:23;;;;;;;18.25;10.65;;;4.90;99.90;;;;;;5055767;28;20024;-91
2023/02/03 04:49:49;;;;;;;16.85;9.50;;;4.50;99.90;;;;;;5055516;28;20033;-91
2023/02/03 04:52:14;;;;;;;14.65;8.48;;;4.90;99.90;;;;;;5037641;28;20091;-91
2023/02/03 04:54:40;;;;;;;15.25;8.20;;;4.40;99.90;;;;;;5053721;28;20091;-91
2023/02/03 04:57:06;;;;;;;15.80;8.18;;;4.70;99.90;;;;;;5054819;28;20025;-90
2023/02/03 04:59:32;;;;;;;14.68;7.43;;;4.40;99.90;;;;;;5055416;28;20079;-90
2023/02/03 05:01:57;;;;;;;14.52;7.88;;;4.30;99.90;;;;;;5055220;28;20029;-90
2023/02/03 05:04:23;;;;;;;16.63;7.57;;;4.70;99.90;;;;;;5055244;28;20769;-91
2023/02/03 05:06:49;;;;;;;14.82;7.70;;;4.40;99.90;;;;;;5055110;28;20029;-91
2023/02/03 05:09:14;;;;;;;15.32;7.22;;;4.60;99.90;;;;;;5055079;28;20082;-91
2023/02/03 05:11:40;;;;;;;18.52;8.35;;;4.20;99.90;;;;;;5037286;28;20104;-91
2023/02/03 05:14:06;;;;;;;16.73;8.00;;;4.60;99.90;;;;;;5055185;28;20062;-91
2023/02/03 05:16:32;;;;;;;15.70;7.63;;;4.30;99.90;;;;;;5037746;28;20025;-91
2023/02/03 05:18:57;;;;;;;14.45;8.18;;;4.10;99.90;;;;;;5055459;28;20025;-92
2023/02/03 05:21:23;;;;;;;15.57;8.35;;;4.60;99.90;;;;;;5054959;28;20068;-92
2023/02/03 05:23:48;;;;;;;15.13;8.40;;;4.00;99.90;;;;;;5055270;28;20028;-93
2023/02/03 05:26:14;;;;;;;16.95;8.52;;;4.40;99.90;;;;;;5036877;28;20025;-93
2023/02/03 05:28:40;;;;;;;15.80;8.98;;;4.30;99.90;;;;;;5055251;28;20580;-91
2023/02/03 05:31:05;;;;;;;18.08;8.70;;;4.10;99.90;;;;;;5037265;28;20032;-92
2023/02/03 05:33:31;;;;;;;14.88;8.20;;;4.10;99.90;;;;;;5054311;28;20045;-93
2023/02/03 05:35:57;;;;;;;13.65;7.85;;;3.80;99.90;;;;;;5049986;28;20075;-92
2023/02/03 05:38:23;;;;;;;15.63;8.05;;;3.80;99.90;;;;;;5036306;28;20029;-93
2023/02/03 05:43:35;;;;;;;21.45;8.23;;;4.20;99.90;;;;;;5053870;28;20087;-93
2023/02/03 05:46:05;;;;;;;16.20;8.00;;;4.20;99.90;;;;;;5036417;28;20033;-92
2023/02/03 05:48:32;;;;;;;13.55;8.25;;;4.00;99.90;;;;;;5054522;28;20496;-93
2023/02/03 05:50:57;;;;;;;18.02;7.80;;;3.90;99.90;;;;;;5052520;28;20071;-93
2023/02/03 05:53:24;;;;;;;16.25;7.88;;;4.00;99.90;;;;;;5035580;28;20446;-92
2023/02/03 05:55:50;;;;;;;14.80;8.38;;;3.70;99.90;;;;;;5051522;28;20021;-93
2023/02/03 05:58:16;;;;;;;15.10;7.60;;;3.60;99.90;;;;;;5054491;28;20481;-92
2023/02/03 06:00:42;;;;;;;15.45;8.27;;;3.60;99.90;;;;;;5055290;28;20033;-93
2023/02/03 06:03:08;;;;;;;17.08;8.80;;;3.30;99.90;;;;;;5038512;28;20025;-94
2023/02/03 06:05:36;;;;;;;19.40;7.95;;;3.50;99.90;;;;;;5037019;28;20490;-92
2023/02/03 06:08:02;;;;;;;17.15;8.18;;;3.40;99.90;;;;;;5033399;28;20501;-92
2023/02/03 06:10:28;;;;;;;21.73;8.63;;;3.30;99.90;;;;;;5033825;28;20021;-93
2023/02/03 06:12:53;;;;;;;18.30;7.88;;;3.30;99.90;;;;;;5033465;28;20118;-93
2023/02/03 06:15:19;;;;;;;17.13;8.40;;;3.20;99.90;;;;;;5032951;28;20037;-93
2023/02/03 06:17:46;;;;;;;13.65;8.05;;;3.10;99.90;;;;;;5034735;28;20378;-93
2023/02/03 06:20:14;;;;;;;17.15;7.95;;;3.20;99.90;;;;;;5032459;28;20036;-93
2023/02/03 06:22:40;;;;;;;15.00;7.38;;;3.20;99.90;;;;;;5034432;28;20026;-93
2023/02/03 06:25:06;;;;;;;16.77;7.50;;;3.00;99.90;;;;;;5033565;28;20437;-93
2023/02/03 06:27:32;;;;;;;16.88;8.20;;;2.70;99.90;;;;;;5032940;28;20022;-94
2023/02/03 06:29:58;;;;;;;19.63;8.18;;;2.80;99.90;;;;;;5033893;28;20034;-94
2023/02/03 06:32:24;;;;;;;16.02;8.52;;;3.10;99.90;;;;;;5033375;28;20057;-94
2023/02/03 06:34:49;;;;;;;16.00;7.65;;;3.20;99.90;;;;;;5033591;28;20091;-92
2023/02/03 06:37:15;;;;;;;16.98;8.48;;;3.00;99.90;;;;;;5032307;28;20021;-93
2023/02/03 06:39:41;;;;;;;15.05;8.00;;;3.30;99.90;;;;;;5033287;28;20044;-93
2023/02/03 06:42:06;;;;;;;19.85;9.52;;;3.40;99.90;;;;;;5033621;28;20030;-94
2023/02/03 06:44:32;;;;;;;32.05;13.63;;;3.40;99.90;;;;;;5033821;28;20021;-93
2023/02/03 06:46:58;;;;;;;22.15;11.60;;;2.90;99.90;;;;;;5032954;28;20461;-94
2023/02/03 06:49:24;;;;;;;26.88;11.80;;;3.00;99.90;;;;;;5033623;28;20029;-94
2023/02/03 06:51:51;;;;;;;26.13;11.07;;;3.60;99.90;;;;;;5033491;28;20397;-94
2023/02/03 06:54:16;;;;;;;17.40;9.68;;;3.00;99.90;;;;;;5043927;28;20040;-94
2023/02/03 06:56:42;;;;;;;18.15;8.85;;;2.90;99.90;;;;;;5053120;28;20025;-93
2023/02/03 06:59:09;;;;;;;21.40;9.50;;;3.00;99.90;;;;;;5052932;28;20032;-94
2023/02/03 07:01:35;;;;;;;15.55;8.93;;;2.90;99.90;;;;;;5054624;28;20485;-94
2023/02/03 07:04:00;;;;;;;16.08;8.45;;;3.00;99.90;;;;;;5053401;28;20047;-94
2023/02/03 07:06:28;;;;;;;16.08;8.18;;;2.90;99.90;;;;;;5035370;28;20025;-93
2023/02/03 07:08:55;;;;;;;16.38;8.00;;;3.10;99.90;;;;;;5053106;28;20052;-93
2023/02/03 07:11:21;;;;;;;16.20;8.30;;;2.90;99.90;;;;;;5035728;28;20035;-93
2023/02/03 07:13:46;;;;;;;18.65;8.73;;;2.90;99.90;;;;;;5054102;28;20037;-93
2023/02/03 07:16:13;;;;;;;16.90;8.10;;;3.40;99.90;;;;;;5036783;28;20111;-93
2023/02/03 07:18:38;;;;;;;17.33;8.85;;;3.40;99.90;;;;;;5038696;28;20053;-94
2023/02/03 07:21:05;;;;;;;19.77;8.45;;;3.40;99.90;;;;;;5057584;28;20056;-94
2023/02/03 07:23:31;;;;;;;15.40;8.90;;;3.10;99.90;;;;;;5057658;28;20048;-94
2023/02/03 07:26:03;;;;;;;14.82;8.07;;;3.60;99.90;;;;;;5056933;28;20025;-94
2023/02/03 07:28:33;;;;;;;16.95;8.35;;;3.30;99.90;;;;;;5057331;28;20029;-93
2023/02/03 07:30:59;;;;;;;16.30;8.63;;;3.50;99.90;;;;;;5057900;28;20029;-94
2023/02/03 07:33:26;;;;;;;16.52;8.85;;;3.80;99.90;;;;;;5056699;28;20441;-94
2023/02/03 07:35:57;;;;;;;19.85;8.55;;;3.30;99.90;;;;;;5056993;28;20041;-93
2023/02/03 07:38:24;;;;;;;17.33;9.15;;;4.00;99.90;;;;;;5056795;28;20035;-93
2023/02/03 07:40:51;;;;;;;20.58;9.30;;;3.50;99.90;;;;;;5056942;28;20060;-93
2023/02/03 07:43:17;;;;;;;18.15;9.15;;;3.40;99.90;;;;;;5039265;28;20409;-93
2023/02/03 07:45:43;;;;;;;23.92;9.80;;;3.30;99.90;;;;;;5056603;28;20033;-93
2023/02/03 07:48:09;;;;;;;16.25;8.98;;;3.60;99.90;;;;;;5039022;28;20040;-93
2023/02/03 07:50:35;;;;;;;14.52;9.25;;;3.40;99.90;;;;;;5056486;28;20048;-93
2023/02/03 07:53:01;;;;;;;18.77;8.85;;;4.00;99.90;;;;;;5056665;28;20489;-93
2023/02/03 07:55:28;;;;;;;16.80;9.10;;;3.80;99.90;;;;;;5056550;28;20036;-94
2023/02/03 07:57:57;;;;;;;18.48;9.68;;;4.00;99.90;;;;;;5057045;28;20031;-94
2023/02/03 08:00:23;;;;;;;18.08;9.73;;;4.10;99.90;;;;;;5057215;28;20167;-93
2023/02/03 08:02:49;;;;;;;16.02;8.75;;;4.20;99.90;;;;;;5039720;28;20587;-92
2023/02/03 08:05:16;;;;;;;16.45;8.93;;;4.70;99.90;;;;;;5056098;28;20033;-93
2023/02/03 08:07:41;;;;;;;17.67;9.07;;;4.50;99.90;;;;;;5038898;28;20052;-93
2023/02/03 08:10:09;;;;;;;16.50;9.48;;;5.10;99.90;;;;;;5056363;28;20029;-93
2023/02/03 08:12:35;;;;;;;16.63;8.95;;;6.70;99.90;;;;;;5056277;28;20104;-93
2023/02/03 08:15:01;;;;;;;13.10;8.52;;;7.00;99.90;;;;;;5038581;28;20136;-94
2023/02/03 08:17:26;;;;;;;15.63;9.02;;;6.70;99.90;;;;;;5055778;28;20032;-93
2023/02/03 08:19:52;;;;;;;17.50;8.60;;;6.60;99.90;;;;;;5055808;28;20029;-93
2023/02/03 08:22:18;;;;;;;13.57;8.65;;;6.70;99.90;;;;;;5038165;28;20075;-93
2023/02/03 08:24:47;;;;;;;15.15;8.85;;;7.30;99.90;;;;;;5038272;28;20068;-93
2023/02/03 08:27:18;;;;;;;13.48;8.27;;;7.20;99.90;;;;;;5055646;28;20017;-93
2023/02/03 08:29:44;;;;;;;14.93;8.48;;;8.20;99.90;;;;;;5055651;28;20488;-92
2023/02/03 08:32:12;;;;;;;20.20;8.50;;;12.20;99.90;;;;;;5055501;28;20032;-91
2023/02/03 08:34:38;;;;;;;17.73;8.13;;;13.90;99.90;;;;;;5055302;28;20441;-93
2023/02/03 08:37:05;;;;;;;19.90;8.32;;;15.00;99.90;;;;;;5037787;28;20025;-93
2023/02/03 08:39:32;;;;;;;11.35;7.72;;;15.30;99.90;;;;;;5037762;28;20033;-92
2023/02/03 08:41:58;;;;;;;14.40;8.70;;;16.50;99.90;;;;;;5037853;28;20029;-93
2023/02/03 08:44:23;;;;;;;18.08;9.27;;;17.80;99.90;;;;;;5055041;28;20042;-92
2023/02/03 08:46:51;;;;;;;17.80;9.77;;;18.30;99.90;;;;;;5055158;28;20021;-92
2023/02/03 08:49:17;;;;;;;18.88;10.23;;;19.00;99.90;;;;;;5054618;28;20021;-91
2023/02/03 08:51:44;;;;;;;17.75;10.00;;;19.60;99.90;;;;;;5055056;28;20548;-92
2023/02/03 08:54:10;;;;;;;21.27;12.00;;;19.70;99.90;;;;;;5054768;28;20077;-92
2023/02/03 08:56:36;;;;;;;27.05;12.52;;;20.40;99.90;;;;;;5054522;28;20049;-92
2023/02/03 08:59:02;;;;;;;17.92;10.82;;;20.30;99.90;;;;;;5054829;28;20028;-91
2023/02/03 09:01:27;;;;;;;17.98;10.15;;;20.50;99.90;;;;;;5054593;28;20108;-92
2023/02/03 09:03:53;;;;;;;17.90;10.27;;;20.90;99.90;;;;;;5054283;28;20025;-89
2023/02/03 09:06:19;;;;;;;22.23;10.32;;;21.90;99.90;;;;;;5054387;28;20021;-89
2023/02/03 09:08:45;;;;;;;19.75;9.43;;;21.40;99.90;;;;;;5053129;28;20028;-89
2023/02/03 09:11:16;;;;;;;19.90;10.07;;;21.30;99.90;;;;;;5037701;28;20051;-90
2023/02/03 09:13:44;;;;;;;21.73;11.25;;;21.80;99.90;;;;;;5036876;28;20484;-89
2023/02/03 09:16:16;;;;;;;22.35;10.88;;;21.70;99.90;;;;;;5054090;28;20509;-89
2023/02/03 09:18:42;;;;;;;20.75;10.63;;;21.00;99.90;;;;;;5053855;28;20033;-89
2023/02/03 09:21:12;;;;;;;15.73;10.30;;;21.60;99.90;;;;;;5054145;28;20032;-89
2023/02/03 09:23:39;;;;;;;22.00;11.23;;;22.90;99.90;;;;;;5036206;28;20396;-89
2023/02/03 09:26:10;;;;;;;20.65;10.50;;;22.80;99.90;;;;;;5054400;28;20021;-89
2023/02/03 09:28:36;;;;;;;19.33;9.45;;;23.60;99.90;;;;;;5036027;28;20029;-89
2023/02/03 09:31:04;;;;;;;21.20;10.73;;;25.20;99.90;;;;;;5054505;28;20044;-90
2023/02/03 09:33:30;;;;;;;24.52;11.23;;;25.40;99.90;;;;;;5053559;28;20499;-90
2023/02/03 09:35:57;;;;;;;18.13;9.25;;;25.70;99.90;;;;;;5052888;28;20024;-90
2023/02/03 09:38:26;;;;;;;19.60;9.80;;;26.20;99.90;;;;;;5054200;28;20112;-89
2023/02/03 09:41:01;;;;;;;20.02;9.63;;;25.90;99.90;;;;;;5035976;28;20412;-89
2023/02/03 09:43:38;;;;;;;16.33;9.68;;;25.90;99.90;;;;;;5035855;28;20033;-90
2023/02/03 09:46:16;;;;;;;18.50;9.18;;;25.50;99.90;;;;;;5053888;28;20033;-90
2023/02/03 09:48:54;;;;;;;22.80;10.07;;;25.60;99.90;;;;;;5036316;28;20025;-89
2023/02/03 09:51:23;;;;;;;18.38;10.25;;;25.50;99.90;;;;;;5053781;28;20124;-90
2023/02/03 09:53:56;;;;;;;17.20;9.07;;;25.80;99.90;;;;;;5035588;28;20124;-90
2023/02/03 09:56:28;;;;;;;18.10;9.02;;;25.30;99.90;;;;;;5053440;28;20465;-90
2023/02/03 09:58:54;;;;;;;21.20;9.25;;;25.20;99.90;;;;;;5054061;28;20039;-90
2023/02/03 10:01:22;;;;;;;17.95;9.48;;;26.10;99.90;;;;;;5053437;28;20051;-90
2023/02/03 10:04:02;;;;;;;16.27;9.75;;;25.60;99.90;;;;;;5054078;28;20036;-90
2023/02/03 10:06:38;;;;;;;17.23;10.13;;;26.10;99.90;;;;;;5053255;28;20040;-90
2023/02/03 10:09:12;;;;;;;18.30;10.38;;;25.90;99.90;;;;;;5054450;28;20370;-90
2023/02/03 10:12:02;;;;;;;24.73;10.57;;;26.90;99.90;;;;;;5036019;28;20035;-91
2023/02/03 10:14:42;;;;;;;16.13;10.05;;;26.40;99.90;;;;;;5036030;28;20033;-90
2023/02/03 10:17:20;;;;;;;21.48;11.45;;;25.60;99.90;;;;;;5035451;28;20025;-90
2023/02/03 10:20:17;;;;;;;19.13;10.65;;;26.20;99.90;;;;;;5053133;28;20033;-90
2023/02/03 10:22:50;;;;;;;14.85;8.93;;;26.50;99.90;;;;;;5035644;28;20029;-90
2023/02/03 10:25:29;;;;;;;15.50;8.10;;;27.20;99.90;;;;;;5052966;28;20029;-90
2023/02/03 10:27:58;;;;;;;18.10;8.80;;;27.30;99.90;;;;;;5053135;28;20477;-90
2023/02/03 10:30:27;;;;;;;14.05;8.77;;;27.50;99.90;;;;;;5052929;28;20029;-90
2023/02/03 10:33:22;;;;;;;12.45;8.07;;;26.60;99.90;;;;;;5052857;28;20052;-90
2023/02/03 10:35:54;;;;;;;13.80;9.13;;;26.50;99.90;;;;;;5049765;28;20133;-90
2023/02/03 10:38:51;;;;;;;15.25;8.73;;;26.80;99.90;;;;;;5035221;28;20024;-90
2023/02/03 10:41:19;;;;;;;13.65;9.07;;;26.70;99.90;;;;;;5038372;28;20040;-90
2023/02/03 10:43:46;;;;;;;13.13;7.10;;;28.20;99.90;;;;;;5053139;28;20095;-90
2023/02/03 10:46:15;;;;;;;14.15;8.23;;;28.70;99.90;;;;;;5052320;28;20025;-90
2023/02/03 10:48:41;;;;;;;13.10;8.43;;;28.00;99.90;;;;;;5052733;28;20465;-90
2023/02/03 10:51:24;;;;;;;10.50;7.00;;;28.90;99.90;;;;;;5052902;28;20040;-90
2023/02/03 10:53:54;;;;;;;12.95;7.30;;;29.60;99.90;;;;;;5051467;28;20090;-90
2023/02/03 10:56:24;;;;;;;10.60;7.60;;;29.50;99.90;;;;;;5052476;28;20096;-90
2023/02/03 10:58:54;;;;;;;10.57;6.70;;;29.20;99.90;;;;;;5052165;28;20040;-90
2023/02/03 11:01:22;;;;;;;7.30;5.90;;;29.40;99.90;;;;;;5035464;28;19997;-90
2023/02/03 11:04:02;;;;;;;10.98;5.63;;;28.00;99.90;;;;;;5051993;28;20111;-90
2023/02/03 11:06:29;;;;;;;8.95;4.88;;;28.00;99.90;;;;;;5052419;28;20392;-90
2023/02/03 11:08:54;;;;;;;7.78;4.32;;;29.00;99.90;;;;;;5052158;28;20013;-90
2023/02/03 11:11:23;;;;;;;5.22;3.83;;;29.20;99.90;;;;;;5052729;28;20033;-90
2023/02/03 11:14:11;;;;;;;8.40;3.50;;;29.40;99.90;;;;;;5052066;28;20033;-90
2023/02/03 11:16:38;;;;;;;7.10;3.72;;;28.90;99.90;;;;;;5052275;28;20025;-90
2023/02/03 11:19:20;;;;;;;5.38;3.35;;;27.50;99.90;;;;;;5052325;28;20108;-90
2023/02/03 11:21:55;;;;;;;8.77;6.13;;;27.60;99.90;;;;;;5035201;28;20029;-90
2023/02/03 11:24:27;;;;;;;6.53;4.07;;;28.30;99.90;;;;;;5052294;28;20108;-90
2023/02/03 11:27:15;;;;;;;6.00;4.25;;;29.10;99.90;;;;;;5052256;28;20388;-90
2023/02/03 11:29:44;;;;;;;6.95;4.00;;;30.20;99.90;;;;;;5051979;28;20041;-90
2023/02/03 11:32:26;;;;;;;5.00;2.92;;;30.20;99.90;;;;;;5034355;28;20021;-90
2023/02/03 11:34:55;;;;;;;4.47;3.00;;;30.80;99.90;;;;;;5051991;28;20048;-90
2023/02/03 11:37:31;;;;;;;4.07;2.80;;;30.10;99.90;;;;;;5052679;28;20114;-91
2023/02/03 11:40:11;;;;;;;4.05;2.10;;;30.20;99.90;;;;;;5052294;28;20029;-90
2023/02/03 11:42:42;;;;;;;3.88;2.30;;;29.40;99.90;;;;;;5052196;28;20028;-90
2023/02/03 11:45:16;;;;;;;4.40;2.35;;;28.90;99.90;;;;;;5051913;28;20013;-90
2023/02/03 11:47:52;;;;;;;9.52;6.93;;;29.60;1.00;;;;;;5052143;28;20033;-90
2023/02/03 11:50:38;;;;;;;5.68;4.10;;;31.90;99.90;;;;;;5034472;28;20025;-90
2023/02/03 11:53:24;;;;;;;3.10;2.30;;;31.60;99.90;;;;;;5051933;28;20104;-90
2023/02/03 11:56:15;;;;;;;5.03;3.30;;;29.10;99.90;;;;;;5051945;28;20033;-90
2023/02/03 11:59:17;;;;;;;3.78;1.90;;;30.20;99.90;;;;;;5051546;28;20088;-91
2023/02/03 12:02:01;;;;;;;3.70;2.20;;;29.00;99.90;;;;;;5051906;28;20037;-91
2023/02/03 12:04:39;;;;;;;4.30;2.35;;;26.20;99.90;;;;;;5053825;28;20112;-90
2023/02/03 12:07:04;;;;;;;5.60;2.25;;;29.20;99.90;;;;;;5055965;28;20089;-90
2023/02/03 12:09:45;;;;;;;5.47;2.40;;;23.80;99.90;;;;;;5055977;28;20049;-91
2023/02/03 12:12:41;;;;;;;3.30;1.98;;;23.20;99.90;;;;;;5038035;28;20028;-91
2023/02/03 12:15:30;;;;;;;4.03;2.83;;;21.30;99.90;;;;;;5056080;28;20058;-91
2023/02/03 12:18:17;;;;;;;2.75;1.77;;;19.60;99.90;;;;;;5056138;28;20103;-92
2023/02/03 12:21:13;;;;;;;5.45;2.08;;;17.80;99.90;;;;;;5056281;28;20036;-91
2023/02/03 12:23:59;;;;;;;4.07;2.67;;;19.50;99.90;;;;;;5055858;28;20053;-91
2023/02/03 12:26:41;;;;;;;4.03;1.85;;;18.30;99.90;;;;;;5055052;28;20119;-90
2023/02/03 12:29:16;;;;;;;5.35;3.65;;;18.30;99.90;;;;;;5055505;28;20101;-91
2023/02/03 12:32:04;;;;;;;6.85;4.80;;;17.90;99.90;;;;;;5055553;28;20059;-91
2023/02/03 12:34:35;;;;;;;32.40;27.15;;;18.40;99.90;;;;;;5051116;28;20061;-90
2023/02/03 12:37:03;;;;;;;4.20;3.20;;;18.30;99.90;;;;;;5055596;28;20536;-90
2023/02/03 12:39:44;;;;;;;6.75;5.53;;;19.90;99.90;;;;;;5055923;28;20104;-91
2023/02/03 12:42:27;;;;;;;7.63;6.07;;;21.60;99.90;;;;;;5055096;28;20025;-90
2023/02/03 12:45:28;;;;;;;4.95;3.22;;;19.70;99.90;;;;;;5037563;28;20025;-91
2023/02/03 12:48:27;;;;;;;37.80;32.20;;;21.80;99.90;;;;;;4974427;28;20170;-91
2023/02/03 12:50:59;;;;;;;9.60;7.72;;;22.40;99.90;;;;;;4974618;28;20062;-90
2023/02/03 12:53:36;;;;;;;2.58;2.25;;;24.70;99.90;;;;;;4958399;28;20034;-91
2023/02/03 12:56:09;;;;;;;4.07;2.83;;;21.00;99.90;;;;;;4957992;28;20035;-91
2023/02/03 12:58:45;;;;;;;3.15;1.80;;;20.00;99.90;;;;;;4974440;28;20038;-91
2023/02/03 13:01:17;;;;;;;3.80;1.75;;;17.70;99.90;;;;;;4974582;28;20059;-91
2023/02/03 13:04:04;;;;;;;3.42;2.22;;;17.10;99.90;;;;;;4974566;28;20042;-90